createdAt,value
2022-10-05T00:01:37.252Z,100822.28
2022-10-05T00:04:41.843Z,100823.69
2022-10-05T00:07:44.609Z,100830.25
2022-10-05T00:10:47.841Z,100826.22
2022-10-05T00:13:50.598Z,100817.88
2022-10-05T00:16:53.683Z,100812.00
2022-10-05T00:19:56.583Z,100822.34
2022-10-05T00:23:02.146Z,100820.13
2022-10-05T00:26:21.114Z,100807.59
2022-10-05T00:29:24.063Z,100816.41
2022-10-05T00:32:27.188Z,100817.75
2022-10-05T00:35:32.225Z,100808.84
2022-10-05T00:38:34.959Z,100813.34
2022-10-05T00:41:45.280Z,100809.03
2022-10-05T00:44:56.252Z,100815.03
2022-10-05T00:48:09.176Z,100823.50
2022-10-05T00:51:26.002Z,100821.91
2022-10-05T00:54:38.317Z,100816.03
2022-10-05T00:57:54.388Z,100825.72
2022-10-05T01:01:18.333Z,100821.28
2022-10-05T01:04:25.683Z,100826.56
2022-10-05T01:07:41.146Z,100832.03
2022-10-05T01:11:11.106Z,100833.34
2022-10-05T01:14:41.040Z,100845.47
2022-10-05T01:18:02.789Z,100853.66
2022-10-05T01:21:20.189Z,100861.09
2022-10-05T01:24:44.724Z,100849.00
2022-10-05T01:28:03.033Z,100848.53
2022-10-05T01:31:22.035Z,100843.13
2022-10-05T01:34:37.430Z,100848.25
2022-10-05T01:38:10.956Z,100844.63
2022-10-05T01:41:21.553Z,100851.19
2022-10-05T01:44:37.536Z,100858.03
2022-10-05T01:47:58.454Z,100864.72
2022-10-05T01:51:13.268Z,100861.09
2022-10-05T01:54:19.319Z,100860.47
2022-10-05T01:57:42.421Z,100860.47
2022-10-05T02:00:55.214Z,100858.22
2022-10-05T02:04:35.637Z,100869.50
2022-10-05T02:07:42.571Z,100866.50
2022-10-05T02:10:52.773Z,100867.28
2022-10-05T02:14:01.875Z,100871.41
2022-10-05T02:17:12.010Z,100871.69
2022-10-05T02:20:23.053Z,100866.50
2022-10-05T02:23:29.721Z,100872.69
2022-10-05T02:26:34.505Z,100876.97
2022-10-05T02:29:40.426Z,100873.00
2022-10-05T02:32:49.813Z,100876.69
2022-10-05T02:35:53.273Z,100886.03
2022-10-05T02:39:05.588Z,100879.69
2022-10-05T02:42:28.710Z,100874.31
2022-10-05T02:45:49.905Z,100865.09
2022-10-05T02:49:15.436Z,100869.22
2022-10-05T02:52:43.229Z,100854.63
2022-10-05T02:55:53.849Z,100850.34
2022-10-05T02:59:07.672Z,100842.72
2022-10-05T03:02:31.881Z,100838.59
2022-10-05T03:05:55.499Z,100837.69
2022-10-05T03:09:07.078Z,100827.03
2022-10-05T03:12:33.653Z,100830.69
2022-10-05T03:16:07.475Z,100833.56
2022-10-05T03:19:28.024Z,100838.13
2022-10-05T03:22:46.996Z,100843.06
2022-10-05T03:25:56.500Z,100846.06
2022-10-05T03:29:28.604Z,100851.47
2022-10-05T03:33:06.656Z,100850.81
2022-10-05T03:36:13.440Z,100853.22
2022-10-05T03:39:28.039Z,100854.81
2022-10-05T03:43:03.608Z,100849.56
2022-10-05T03:46:20.874Z,100853.56
2022-10-05T03:49:45.918Z,100867.19
2022-10-05T03:52:51.880Z,100869.91
2022-10-05T03:56:03.949Z,100864.19
2022-10-05T03:59:17.396Z,100861.81
2022-10-05T04:02:30.667Z,100853.09
2022-10-05T04:05:46.083Z,100856.00
2022-10-05T04:09:02.536Z,100861.19
2022-10-05T04:12:28.904Z,100850.75
2022-10-05T04:15:31.618Z,100858.34
2022-10-05T04:18:38.124Z,100848.34
2022-10-05T04:21:49.696Z,100840.13
2022-10-05T04:25:01.315Z,100844.41
2022-10-05T04:28:18.108Z,100840.91
2022-10-05T04:31:38.464Z,100833.28
2022-10-05T04:34:57.969Z,100818.69
2022-10-05T04:38:35.421Z,100809.97
2022-10-05T04:42:02.961Z,100815.22
2022-10-05T04:45:29.804Z,100815.56
2022-10-05T04:48:41.297Z,100823.47
2022-10-05T04:51:51.008Z,100825.19
2022-10-05T04:55:13.638Z,100831.72
2022-10-05T04:58:42.092Z,100823.13
2022-10-05T05:01:56.456Z,100817.41
2022-10-05T05:05:18.032Z,100816.13
2022-10-05T05:08:42.988Z,100830.88
2022-10-05T05:12:05.906Z,100839.53
2022-10-05T05:15:21.153Z,100843.97
2022-10-05T05:18:48.611Z,100855.88
2022-10-05T05:22:08.166Z,100849.22
2022-10-05T05:25:37.312Z,100858.56
2022-10-05T05:28:55.777Z,100865.38
2022-10-05T05:32:32.701Z,100875.00
2022-10-05T05:35:38.676Z,100873.72
2022-10-05T05:38:54.329Z,100867.06
2022-10-05T05:42:12.386Z,100870.28
2022-10-05T05:45:32.684Z,100876.19
2022-10-05T05:48:40.490Z,100886.69
2022-10-05T05:51:50.505Z,100898.75
2022-10-05T05:55:06.873Z,100905.75
2022-10-05T05:58:19.624Z,100909.06
2022-10-05T06:01:44.358Z,100910.38
2022-10-05T06:04:54.365Z,100913.41
2022-10-05T06:08:00.673Z,100909.91
2022-10-05T06:11:11.511Z,100918.37
2022-10-05T06:14:43.717Z,100927.56
2022-10-05T06:17:55.345Z,100955.13
2022-10-05T06:21:12.551Z,100957.84
2022-10-05T06:24:23.640Z,100954.72
2022-10-05T06:27:38.751Z,100956.22
2022-10-05T06:30:54.063Z,100955.22
2022-10-05T06:34:17.289Z,100955.53
2022-10-05T06:37:46.189Z,100972.13
2022-10-05T06:41:23.376Z,100972.75
2022-10-05T06:44:59.698Z,100972.78
2022-10-05T06:48:08.852Z,100968.81
2022-10-05T06:51:18.908Z,100961.47
2022-10-05T06:54:40.273Z,100972.22
2022-10-05T06:57:56.033Z,100978.09
2022-10-05T07:01:05.874Z,100986.31
2022-10-05T07:04:19.620Z,100980.50
2022-10-05T07:07:29.558Z,100973.16
2022-10-05T07:10:50.261Z,100982.41
2022-10-05T07:14:11.526Z,100982.41
2022-10-05T07:17:42.646Z,100994.72
2022-10-05T07:20:51.776Z,100986.78
2022-10-05T07:24:33.599Z,100987.13
2022-10-05T07:27:50.992Z,100982.59
2022-10-05T07:30:59.972Z,100977.94
2022-10-05T07:34:20.562Z,100964.62
2022-10-05T07:37:54.256Z,100976.13
2022-10-05T07:41:07.683Z,100984.00
2022-10-05T07:44:33.827Z,100978.94
2022-10-05T07:47:45.819Z,100980.63
2022-10-05T07:51:03.657Z,100974.09
2022-10-05T07:54:25.981Z,100973.03
2022-10-05T07:57:39.817Z,100972.87
2022-10-05T08:00:47.487Z,100975.75
2022-10-05T08:04:20.430Z,100971.19
2022-10-05T08:10:57.012Z,100965.56
2022-10-05T08:14:11.195Z,100959.66
2022-10-05T08:17:55.678Z,100950.66
2022-10-05T08:20:58.863Z,100953.41
2022-10-05T08:24:41.660Z,100949.69
2022-10-05T08:28:10.615Z,100941.63
2022-10-05T08:31:34.103Z,100932.69
2022-10-05T08:34:59.332Z,100937.19
2022-10-05T08:38:08.453Z,100935.06
2022-10-05T08:41:39.099Z,100950.91
2022-10-05T08:45:00.795Z,100962.84
2022-10-05T08:48:41.960Z,100956.97
2022-10-05T08:52:09.799Z,100952.34
2022-10-05T08:55:43.133Z,100965.34
2022-10-05T08:58:49.098Z,100975.16
2022-10-05T09:02:28.942Z,100976.41
2022-10-05T09:05:47.234Z,100987.88
2022-10-05T09:08:52.793Z,100972.47
2022-10-05T09:12:44.459Z,100973.88
2022-10-05T09:16:13.975Z,100968.66
2022-10-05T09:19:40.231Z,100968.50
2022-10-05T09:22:46.009Z,100963.38
2022-10-05T09:25:48.903Z,100971.59
2022-10-05T09:29:14.830Z,100968.87
2022-10-05T09:32:33.108Z,100975.63
2022-10-05T09:36:09.256Z,100971.22
2022-10-05T09:39:25.128Z,100973.75
2022-10-05T09:43:09.016Z,100967.22
2022-10-05T09:46:55.755Z,100974.84
2022-10-05T09:50:28.194Z,100978.06
2022-10-05T09:54:13.264Z,100979.69
2022-10-05T09:57:23.772Z,100973.13
2022-10-05T10:00:39.365Z,100973.63
2022-10-05T10:04:07.201Z,100974.06
2022-10-05T10:07:31.307Z,100976.41
2022-10-05T10:11:00.610Z,100967.34
2022-10-05T10:14:13.162Z,100959.19
2022-10-05T10:17:44.326Z,100957.72
2022-10-05T10:21:08.109Z,100958.13
2022-10-05T10:24:23.277Z,100959.69
2022-10-05T10:27:34.877Z,100962.41
2022-10-05T10:30:56.361Z,100964.38
2022-10-05T10:34:37.659Z,100959.66
2022-10-05T10:37:52.756Z,100958.50
2022-10-05T10:41:19.885Z,100958.84
2022-10-05T10:45:04.796Z,100951.41
2022-10-05T10:48:32.309Z,100961.19
2022-10-05T10:51:46.701Z,100968.25
2022-10-05T10:55:07.816Z,100970.62
2022-10-05T10:58:55.956Z,100963.56
2022-10-05T11:02:10.793Z,100964.25
2022-10-05T11:05:34.721Z,100967.44
2022-10-05T11:09:08.343Z,100971.78
2022-10-05T11:12:34.206Z,100965.31
2022-10-05T11:16:18.721Z,100960.13
2022-10-05T11:19:40.749Z,100956.94
2022-10-05T11:23:11.766Z,100958.44
2022-10-05T11:26:30.116Z,100943.22
2022-10-05T11:29:41.960Z,100936.28
2022-10-05T11:33:00.600Z,100934.59
2022-10-05T11:36:18.358Z,100924.94
2022-10-05T11:39:38.926Z,100925.50
2022-10-05T11:42:49.169Z,100932.88
2022-10-05T11:46:06.598Z,100923.59
2022-10-05T11:49:12.307Z,100922.09
2022-10-05T11:52:18.300Z,100919.69
2022-10-05T11:55:20.906Z,100924.19
2022-10-05T11:58:28.156Z,100919.97
2022-10-05T12:02:04.790Z,100910.72
2022-10-05T12:05:19.547Z,100916.06
2022-10-05T12:08:53.161Z,100905.00
2022-10-05T12:12:14.795Z,100908.97
2022-10-05T12:15:42.563Z,100903.50
2022-10-05T12:18:52.746Z,100901.66
2022-10-05T12:22:31.927Z,100910.63
2022-10-05T12:25:38.004Z,100892.88
2022-10-05T12:29:19.548Z,100886.53
2022-10-05T12:32:27.721Z,100877.56
2022-10-05T12:35:51.351Z,100872.06
2022-10-05T12:38:58.960Z,100879.28
2022-10-05T12:42:26.582Z,100875.69
2022-10-05T12:46:08.343Z,100873.66
2022-10-05T12:49:29.387Z,100875.81
2022-10-05T12:53:00.573Z,100876.50
2022-10-05T12:56:38.829Z,100872.00
2022-10-05T13:00:05.702Z,100866.81
2022-10-05T13:03:43.635Z,100860.34
2022-10-05T13:06:55.891Z,100872.50
2022-10-05T13:10:22.760Z,100872.06
2022-10-05T13:13:37.905Z,100869.53
2022-10-05T13:16:55.107Z,100874.75
2022-10-05T13:20:02.581Z,100879.50
2022-10-05T13:23:14.218Z,100875.34
2022-10-05T13:26:35.313Z,100872.13
2022-10-05T13:29:42.876Z,100870.47
2022-10-05T13:32:58.668Z,100860.19
2022-10-05T13:36:35.380Z,100870.03
2022-10-05T13:39:55.607Z,100875.19
2022-10-05T13:43:17.612Z,100875.22
2022-10-05T13:46:37.025Z,100874.03
2022-10-05T13:50:18.471Z,100873.56
2022-10-05T13:53:24.882Z,100872.97
2022-10-05T13:56:40.318Z,100860.69
2022-10-05T13:59:57.792Z,100868.25
2022-10-05T14:03:02.140Z,100872.56
2022-10-05T14:06:29.986Z,100864.69
2022-10-05T14:09:35.223Z,100870.06
2022-10-05T14:12:44.217Z,100861.72
2022-10-05T14:15:59.889Z,100862.75
2022-10-05T14:19:03.879Z,100866.75
2022-10-05T14:22:17.546Z,100867.72
2022-10-05T14:25:20.732Z,100869.28
2022-10-05T14:28:33.521Z,100868.56
2022-10-05T14:31:37.381Z,100865.50
2022-10-05T14:34:45.495Z,100857.72
2022-10-05T14:38:00.275Z,100851.09
2022-10-05T14:41:04.667Z,100851.53
2022-10-05T14:44:13.352Z,100852.72
2022-10-05T14:47:23.880Z,100847.34
2022-10-05T14:50:31.499Z,100856.22
2022-10-05T14:53:41.172Z,100847.03
2022-10-05T14:56:56.909Z,100842.69
2022-10-05T15:00:19.284Z,100839.94
2022-10-05T15:03:31.550Z,100828.19
2022-10-05T15:06:41.774Z,100831.00
2022-10-05T15:09:57.179Z,100831.06
2022-10-05T15:13:20.057Z,100835.72
2022-10-05T15:16:34.576Z,100834.13
2022-10-05T15:19:47.053Z,100827.53
2022-10-05T15:23:04.701Z,100813.88
2022-10-05T15:26:20.878Z,100812.38
2022-10-05T15:30:04.530Z,100815.47
2022-10-05T15:33:28.879Z,100817.81
2022-10-05T15:36:43.688Z,100806.09
2022-10-05T15:39:58.322Z,100813.09
2022-10-05T15:43:04.725Z,100819.78
2022-10-05T15:46:34.532Z,100827.59
2022-10-05T15:49:57.283Z,100826.81
2022-10-05T15:53:22.909Z,100824.44
2022-10-05T15:56:39.194Z,100816.25
2022-10-05T16:00:04.320Z,100818.19
2022-10-05T16:03:19.071Z,100813.03
2022-10-05T16:06:56.990Z,100809.53
2022-10-05T16:10:02.745Z,100816.19
2022-10-05T16:13:05.680Z,100810.28
2022-10-05T16:16:25.217Z,100814.53
2022-10-05T16:19:42.985Z,100818.88
2022-10-05T16:22:59.809Z,100821.16
2022-10-05T16:26:02.798Z,100832.09
2022-10-05T16:29:36.656Z,100830.47
2022-10-05T16:32:46.319Z,100835.09
2022-10-05T16:35:55.984Z,100832.78
2022-10-05T16:39:04.140Z,100841.75
2022-10-05T16:42:12.047Z,100840.56
2022-10-05T16:45:44.728Z,100834.66
2022-10-05T16:48:56.022Z,100842.88
2022-10-05T16:52:02.517Z,100854.06
2022-10-05T16:55:13.428Z,100852.53
2022-10-05T16:58:25.632Z,100851.38
2022-10-05T17:01:42.190Z,100852.88
2022-10-05T17:05:07.071Z,100852.50
2022-10-05T17:08:29.623Z,100862.59
2022-10-05T17:11:35.528Z,100857.94
2022-10-05T17:15:00.991Z,100863.03
2022-10-05T17:18:18.441Z,100855.53
2022-10-05T17:22:03.225Z,100864.16
2022-10-05T17:25:35.850Z,100854.34
2022-10-05T17:28:48.644Z,100859.44
2022-10-05T17:32:08.127Z,100854.75
2022-10-05T17:35:18.765Z,100870.38
2022-10-05T17:38:35.472Z,100862.94
2022-10-05T17:41:38.899Z,100865.66
2022-10-05T17:44:41.932Z,100869.94
2022-10-05T17:48:04.545Z,100881.63
2022-10-05T17:51:48.174Z,100877.28
2022-10-05T17:55:09.461Z,100875.66
2022-10-05T17:58:24.748Z,100882.62
2022-10-05T18:01:30.537Z,100878.31
2022-10-05T18:04:39.893Z,100872.44
2022-10-05T18:07:50.957Z,100873.19
2022-10-05T18:11:17.335Z,100865.34
2022-10-05T18:14:27.449Z,100856.34
2022-10-05T18:17:36.523Z,100862.28
2022-10-05T18:20:43.249Z,100872.81
2022-10-05T18:24:14.215Z,100876.72
2022-10-05T18:28:11.088Z,100871.56
2022-10-05T18:31:17.816Z,100870.28
2022-10-05T18:34:47.998Z,100873.88
2022-10-05T18:37:57.038Z,100873.56
2022-10-05T18:41:02.360Z,100872.34
2022-10-05T18:44:14.436Z,100869.84
2022-10-05T18:47:54.780Z,100865.56
2022-10-05T18:51:21.757Z,100870.56
2022-10-05T18:54:52.003Z,100868.59
2022-10-05T18:58:04.681Z,100870.19
2022-10-05T19:01:28.423Z,100873.66
2022-10-05T19:04:51.733Z,100874.41
2022-10-05T19:08:08.821Z,100872.84
2022-10-05T19:11:30.360Z,100866.53
2022-10-05T19:14:56.641Z,100865.72
2022-10-05T19:18:30.615Z,100871.22
2022-10-05T19:22:14.940Z,100873.59
2022-10-05T19:25:23.866Z,100876.38
2022-10-05T19:28:31.010Z,100878.31
2022-10-05T19:31:48.657Z,100876.81
2022-10-05T19:35:10.690Z,100886.22
2022-10-05T19:38:32.297Z,100877.31
2022-10-05T19:41:47.325Z,100880.84
2022-10-05T19:45:03.949Z,100887.78
2022-10-05T19:48:31.873Z,100892.47
2022-10-05T19:51:46.537Z,100898.28
2022-10-05T19:55:21.495Z,100892.00
2022-10-05T19:58:27.323Z,100898.25
2022-10-05T20:01:31.833Z,100905.69
2022-10-05T20:04:40.968Z,100899.84
2022-10-05T20:07:43.795Z,100892.38
2022-10-05T20:11:27.319Z,100902.88
2022-10-05T20:14:31.916Z,100911.41
2022-10-05T20:17:53.568Z,100917.53
2022-10-05T20:20:56.730Z,100915.63
2022-10-05T20:24:15.398Z,100912.34
2022-10-05T20:27:39.916Z,100914.00
2022-10-05T20:30:42.928Z,100916.44
2022-10-05T20:33:46.096Z,100921.44
2022-10-05T20:36:50.087Z,100914.03
2022-10-05T20:39:52.803Z,100924.44
2022-10-05T20:42:56.534Z,100922.50
2022-10-05T20:45:59.253Z,100919.88
2022-10-05T20:49:02.812Z,100916.78
2022-10-05T20:52:09.728Z,100919.53
2022-10-05T20:55:13.006Z,100915.94
2022-10-05T20:58:17.167Z,100922.47
2022-10-05T21:01:20.285Z,100926.06
2022-10-05T21:04:26.176Z,100924.13
2022-10-05T21:07:30.372Z,100916.25
2022-10-05T21:10:33.101Z,100924.28
2022-10-05T21:13:38.703Z,100934.09
2022-10-05T21:16:41.911Z,100926.91
2022-10-05T21:19:45.084Z,100921.78
2022-10-05T21:22:47.843Z,100923.38
2022-10-05T21:25:51.198Z,100918.44
2022-10-05T21:28:53.934Z,100916.81
2022-10-05T21:31:56.976Z,100915.88
2022-10-05T21:34:59.747Z,100913.66
2022-10-05T21:38:02.773Z,100912.00
2022-10-05T21:41:05.755Z,100913.19
2022-10-05T21:44:08.723Z,100913.88
2022-10-05T21:47:12.444Z,100908.78
2022-10-05T21:50:15.618Z,100905.13
2022-10-05T21:53:19.709Z,100908.31
2022-10-05T21:56:25.948Z,100906.41
2022-10-05T21:59:31.694Z,100895.09
2022-10-05T22:02:34.667Z,100890.22
2022-10-05T22:05:37.818Z,100888.28
2022-10-05T22:08:40.856Z,100892.47
2022-10-05T22:11:47.662Z,100880.56
2022-10-05T22:14:50.779Z,100886.03
2022-10-05T22:17:54.376Z,100887.59
2022-10-05T22:20:57.127Z,100893.38
2022-10-05T22:24:00.364Z,100888.88
2022-10-05T22:27:03.238Z,100883.25
2022-10-05T22:30:07.208Z,100880.94
2022-10-05T22:33:10.327Z,100881.88
2022-10-05T22:36:13.360Z,100876.22
2022-10-05T22:39:17.695Z,100870.31
2022-10-05T22:42:21.072Z,100877.13
2022-10-05T22:45:23.916Z,100876.41
2022-10-05T22:48:27.282Z,100876.16
2022-10-05T22:51:30.434Z,100873.44
2022-10-05T22:54:37.181Z,100880.34
2022-10-05T22:57:41.038Z,100883.31
2022-10-05T23:00:58.160Z,100882.97
2022-10-05T23:04:02.305Z,100881.28
2022-10-05T23:07:05.355Z,100880.84
2022-10-05T23:10:11.114Z,100882.78
2022-10-05T23:13:15.424Z,100888.25
2022-10-05T23:16:20.980Z,100882.78
2022-10-05T23:19:24.150Z,100880.25
2022-10-05T23:22:26.880Z,100880.25
2022-10-05T23:25:30.177Z,100881.28
2022-10-05T23:28:33.766Z,100884.44
2022-10-05T23:31:37.063Z,100879.38
2022-10-05T23:34:39.848Z,100879.69
2022-10-05T23:37:44.346Z,100881.47
2022-10-05T23:40:47.711Z,100878.41
2022-10-05T23:43:50.772Z,100885.22
2022-10-05T23:46:54.470Z,100879.78
2022-10-05T23:49:57.343Z,100887.50
2022-10-05T23:53:01.060Z,100878.41
2022-10-05T23:56:04.689Z,100872.81
2022-10-05T23:59:07.370Z,100870.72
